createdAt,value
2022-10-25T00:01:12.885Z,4
2022-10-25T00:05:15.099Z,4
2022-10-25T00:07:16.111Z,4
2022-10-25T00:09:17.304Z,4
2022-10-25T00:11:19.101Z,4
2022-10-25T00:13:20.088Z,4
2022-10-25T00:15:21.911Z,4
2022-10-25T00:17:23.287Z,4
2022-10-25T00:21:25.558Z,4
2022-10-25T00:23:26.912Z,4
2022-10-25T00:25:28.410Z,4
2022-10-25T00:27:29.407Z,4
2022-10-25T00:29:31.155Z,4
2022-10-25T00:33:33.197Z,4
2022-10-25T00:37:35.686Z,4
2022-10-25T00:39:37.117Z,3.99
2022-10-25T00:41:38.520Z,3.99
2022-10-25T00:43:40.160Z,3.99
2022-10-25T00:45:41.449Z,3.99
2022-10-25T00:47:43.148Z,3.99
2022-10-25T00:49:44.871Z,4
2022-10-25T00:53:47.868Z,3.99
2022-10-25T00:55:48.991Z,3.98
2022-10-25T00:57:50.258Z,3.99
2022-10-25T00:59:51.884Z,3.99
2022-10-25T01:03:54.809Z,3.99
2022-10-25T01:05:56.198Z,3.99
2022-10-25T01:09:59.341Z,3.99
2022-10-25T01:12:00.298Z,3.99
2022-10-25T01:16:03.459Z,3.99
2022-10-25T01:20:05.817Z,3.98
2022-10-25T01:22:07.049Z,3.98
2022-10-25T01:24:08.382Z,3.98
2022-10-25T01:26:09.939Z,3.98
2022-10-25T01:28:11.284Z,3.98
2022-10-25T01:30:13.017Z,3.98
2022-10-25T01:32:14.189Z,3.98
2022-10-25T01:36:17.179Z,3.98
2022-10-25T01:38:18.420Z,3.98
2022-10-25T01:40:19.524Z,3.98
2022-10-25T01:42:20.816Z,3.98
2022-10-25T01:46:24.121Z,3.98
2022-10-25T01:48:25.999Z,3.98
2022-10-25T01:50:27.651Z,3.98
2022-10-25T01:52:29.130Z,3.98
2022-10-25T01:54:30.826Z,3.98
2022-10-25T01:56:32.614Z,3.98
2022-10-25T01:58:33.715Z,3.98
2022-10-25T02:00:35.105Z,3.98
2022-10-25T02:04:37.627Z,3.98
2022-10-25T02:08:40.431Z,3.98
2022-10-25T02:10:41.999Z,3.98
2022-10-25T02:12:43.616Z,3.98
2022-10-25T02:14:44.899Z,3.98
2022-10-25T02:18:48.081Z,3.98
2022-10-25T02:19:31.911Z,3.98
2022-10-25T02:21:33.538Z,3.98
2022-10-25T02:23:35.197Z,3.98
2022-10-25T02:25:37.037Z,3.98
2022-10-25T02:27:38.811Z,3.98
2022-10-25T02:29:39.857Z,3.98
2022-10-25T02:31:41.760Z,3.98
2022-10-25T02:33:42.702Z,3.98
2022-10-25T02:35:44.257Z,3.98
2022-10-25T02:41:47.599Z,3.98
2022-10-25T02:47:51.151Z,3.97
2022-10-25T02:49:52.348Z,3.98
2022-10-25T02:51:53.827Z,3.97
2022-10-25T02:53:55.255Z,3.98
2022-10-25T02:55:56.442Z,3.98
2022-10-25T02:57:57.432Z,3.97
2022-10-25T02:59:58.468Z,3.97
2022-10-25T03:01:59.555Z,3.97
2022-10-25T03:04:00.573Z,3.97
2022-10-25T03:08:03.405Z,3.97
2022-10-25T03:12:06.702Z,3.97
2022-10-25T03:14:08.275Z,3.97
2022-10-25T03:16:09.748Z,3.97
2022-10-25T03:18:10.661Z,3.97
2022-10-25T03:20:12.163Z,3.97
2022-10-25T03:22:13.673Z,3.97
2022-10-25T03:24:14.729Z,3.97
2022-10-25T03:26:15.894Z,3.97
2022-10-25T03:30:18.732Z,3.97
2022-10-25T03:32:20.179Z,3.97
2022-10-25T03:34:21.631Z,3.97
2022-10-25T03:36:23.476Z,3.97
2022-10-25T03:40:26.377Z,3.97
2022-10-25T03:42:27.873Z,3.96
2022-10-25T03:46:29.934Z,3.97
2022-10-25T03:50:33.137Z,3.96
2022-10-25T03:52:34.410Z,3.97
2022-10-25T03:54:35.982Z,3.96
2022-10-25T03:56:37.113Z,3.96
2022-10-25T03:58:38.373Z,3.96
2022-10-25T04:02:41.811Z,3.96
2022-10-25T04:06:45.260Z,3.96
2022-10-25T04:08:46.843Z,3.96
2022-10-25T04:10:48.673Z,3.96
2022-10-25T04:14:51.244Z,3.96
2022-10-25T04:16:52.575Z,3.96
2022-10-25T04:18:54.466Z,3.96
2022-10-25T04:20:55.882Z,3.96
2022-10-25T04:22:57.698Z,3.96
2022-10-25T04:24:59.495Z,3.96
2022-10-25T04:27:00.442Z,3.96
2022-10-25T04:29:02.204Z,3.96
2022-10-25T04:31:04.036Z,3.96
2022-10-25T04:33:04.986Z,3.96
2022-10-25T04:35:06.097Z,3.96
2022-10-25T04:37:07.663Z,3.96
2022-10-25T04:39:09.099Z,3.96
2022-10-25T04:41:10.436Z,3.96
2022-10-25T04:43:11.532Z,3.96
2022-10-25T04:45:12.624Z,3.96
2022-10-25T04:49:15.453Z,3.96
2022-10-25T04:51:16.507Z,3.95
2022-10-25T04:53:17.559Z,3.96
2022-10-25T04:55:18.467Z,3.96
2022-10-25T04:57:20.331Z,3.96
2022-10-25T04:59:21.534Z,3.96
2022-10-25T05:01:23.018Z,3.96
2022-10-25T05:05:25.245Z,3.96
2022-10-25T05:07:26.459Z,3.95
2022-10-25T05:09:27.419Z,3.96
2022-10-25T05:11:28.990Z,3.95
2022-10-25T05:13:30.226Z,3.96
2022-10-25T05:15:31.260Z,3.95
2022-10-25T05:17:32.736Z,3.96
2022-10-25T05:21:35.613Z,3.95
2022-10-25T05:23:36.725Z,3.95
2022-10-25T05:25:38.476Z,3.95
2022-10-25T05:27:40.350Z,3.95
2022-10-25T05:31:43.327Z,3.95
2022-10-25T05:33:44.393Z,3.95
2022-10-25T05:35:45.361Z,3.95
2022-10-25T05:37:46.926Z,3.95
2022-10-25T05:39:48.626Z,3.95
2022-10-25T05:43:51.523Z,3.95
2022-10-25T05:47:53.702Z,3.95
2022-10-25T05:49:54.663Z,3.95
2022-10-25T05:51:55.922Z,3.95
2022-10-25T05:53:57.354Z,3.95
2022-10-25T05:55:58.593Z,3.95
2022-10-25T05:58:00.464Z,3.95
2022-10-25T06:00:02.214Z,3.95
2022-10-25T06:04:05.327Z,3.94
2022-10-25T06:06:07.099Z,3.94
2022-10-25T06:08:08.571Z,3.94
2022-10-25T06:10:10.827Z,3.94
2022-10-25T06:14:12.768Z,3.94
2022-10-25T06:16:22.121Z,3.94
2022-10-25T06:20:16.384Z,3.94
2022-10-25T06:22:17.603Z,3.94
2022-10-25T06:24:18.849Z,3.94
2022-10-25T06:26:20.096Z,3.94
2022-10-25T06:30:23.290Z,3.94
2022-10-25T06:32:24.685Z,3.94
2022-10-25T06:36:27.388Z,3.94
2022-10-25T06:38:29.004Z,3.94
2022-10-25T06:40:30.611Z,3.94
2022-10-25T06:42:31.881Z,3.94
2022-10-25T06:46:36.167Z,3.94
2022-10-25T06:48:36.324Z,3.94
2022-10-25T06:50:37.575Z,3.94
2022-10-25T06:52:39.118Z,3.94
2022-10-25T06:56:41.736Z,3.94
2022-10-25T06:58:43.231Z,3.94
2022-10-25T07:00:46.053Z,3.94
2022-10-25T07:02:46.784Z,3.94
2022-10-25T07:04:47.454Z,3.94
2022-10-25T07:06:50.242Z,3.94
2022-10-25T07:08:50.870Z,3.94
2022-10-25T07:12:53.671Z,3.94
2022-10-25T07:14:54.988Z,3.97
2022-10-25T07:16:56.766Z,3.98
2022-10-25T07:18:58.686Z,3.96
2022-10-25T07:20:59.855Z,3.98
2022-10-25T07:23:01.233Z,3.99
2022-10-25T07:25:02.781Z,4
2022-10-25T07:27:03.981Z,4
2022-10-25T07:29:05.258Z,3.97
2022-10-25T07:31:06.250Z,4
2022-10-25T07:35:08.733Z,4.01
2022-10-25T07:37:09.620Z,4.02
2022-10-25T07:39:10.632Z,4.02
2022-10-25T07:41:12.442Z,4
2022-10-25T07:45:15.382Z,4
2022-10-25T07:47:16.550Z,4.02
2022-10-25T07:49:17.403Z,4.01
2022-10-25T07:51:18.566Z,3.99
2022-10-25T07:53:20.330Z,4
2022-10-25T07:57:23.370Z,4.03
2022-10-25T07:59:25.064Z,4.04
2022-10-25T08:01:26.146Z,4.01
2022-10-25T08:05:28.658Z,4
2022-10-25T08:07:30.463Z,4
2022-10-25T08:09:38.161Z,4.01
2022-10-25T08:11:32.653Z,4.01
2022-10-25T08:13:33.738Z,4.01
2022-10-25T08:15:35.239Z,4.03
2022-10-25T08:17:36.930Z,4.04
2022-10-25T08:19:38.436Z,4.02
2022-10-25T08:21:40.214Z,4.02
2022-10-25T08:23:41.322Z,4.03
2022-10-25T08:27:45.020Z,4.02
2022-10-25T08:29:46.346Z,4.02
2022-10-25T08:31:48.226Z,4.02
2022-10-25T08:33:49.554Z,4.02
2022-10-25T08:37:52.904Z,4.02
2022-10-25T08:39:55.620Z,4.02
2022-10-25T08:43:56.930Z,4.03
2022-10-25T08:45:57.935Z,4.04
2022-10-25T08:50:00.025Z,4.03
2022-10-25T08:54:02.943Z,4.03
2022-10-25T08:56:15.917Z,4.04
2022-10-25T09:00:07.104Z,4.07
2022-10-25T09:02:08.885Z,4.07
2022-10-25T09:04:10.229Z,4.07
2022-10-25T09:04:53.938Z,4.08
2022-10-25T09:06:55.448Z,4.08
2022-10-25T09:08:56.766Z,4.08
2022-10-25T09:10:58.451Z,4.08
2022-10-25T09:15:01.027Z,4.09
2022-10-25T09:17:01.994Z,4.09
2022-10-25T09:19:02.981Z,4.1
2022-10-25T09:21:04.241Z,4.1
2022-10-25T09:23:05.326Z,4.1
2022-10-25T09:25:06.898Z,4.1
2022-10-25T09:27:08.615Z,4.11
2022-10-25T09:29:10.057Z,4.11
2022-10-25T09:31:11.013Z,4.12
2022-10-25T09:33:11.939Z,4.12
2022-10-25T09:35:13.501Z,4.12
2022-10-25T09:37:14.713Z,4.12
2022-10-25T09:39:16.224Z,4.12
2022-10-25T09:41:17.748Z,4.13
2022-10-25T09:43:18.779Z,4.13
2022-10-25T09:47:21.475Z,4.13
2022-10-25T09:49:22.714Z,4.14
2022-10-25T09:51:24.420Z,4.14
2022-10-25T09:53:25.389Z,4.14
2022-10-25T09:55:26.855Z,4.14
2022-10-25T09:57:27.995Z,4.15
2022-10-25T09:59:29.000Z,4.15
2022-10-25T10:01:29.898Z,4.15
2022-10-25T10:03:31.366Z,4.16
2022-10-25T10:07:33.909Z,4.16
2022-10-25T10:09:35.330Z,4.16
2022-10-25T10:11:37.105Z,4.16
2022-10-25T10:15:38.995Z,4.17
2022-10-25T10:19:41.279Z,4.17
2022-10-25T10:21:42.674Z,4.17
2022-10-25T10:23:43.663Z,4.17
2022-10-25T10:25:44.646Z,4.17
2022-10-25T10:29:48.298Z,4.18
2022-10-25T10:31:49.885Z,4.18
2022-10-25T10:33:51.442Z,4.18
2022-10-25T10:35:52.400Z,4.18
2022-10-25T10:37:54.094Z,4.19
2022-10-25T10:39:55.601Z,4.19
2022-10-25T10:41:57.101Z,4.19
2022-10-25T10:45:59.669Z,4.19
2022-10-25T10:48:01.089Z,4.19
2022-10-25T10:50:02.017Z,4.19
2022-10-25T10:52:02.985Z,4.19
2022-10-25T10:56:05.200Z,4.19
2022-10-25T10:58:06.987Z,4.19
2022-10-25T11:00:08.592Z,4.2
2022-10-25T11:02:10.440Z,4.19
2022-10-25T11:04:12.130Z,4.2
2022-10-25T11:06:13.353Z,4.2
2022-10-25T11:08:14.857Z,4.19
2022-10-25T11:12:17.964Z,4.2
2022-10-25T11:14:19.745Z,4.2
2022-10-25T11:16:23.068Z,4.2
2022-10-25T11:18:23.054Z,4.2
2022-10-25T11:20:24.555Z,4.2
2022-10-25T11:22:29.295Z,4.2
2022-10-25T11:24:27.344Z,4.2
2022-10-25T11:28:29.644Z,4.2
2022-10-25T11:30:30.702Z,4.2
2022-10-25T11:34:33.187Z,4.2
2022-10-25T11:36:34.612Z,4.2
2022-10-25T11:38:36.163Z,4.2
2022-10-25T11:40:37.013Z,4.2
2022-10-25T11:44:41.712Z,4.2
2022-10-25T11:46:41.497Z,4.19
2022-10-25T11:48:43.078Z,4.19
2022-10-25T11:50:44.770Z,4.19
2022-10-25T11:54:47.388Z,4.19
2022-10-25T11:56:48.816Z,4.19
2022-10-25T11:58:50.388Z,4.19
2022-10-25T12:00:51.330Z,4.19
2022-10-25T12:02:52.989Z,4.19
2022-10-25T12:04:54.621Z,4.18
2022-10-25T12:06:56.288Z,4.18
2022-10-25T12:10:59.675Z,4.18
2022-10-25T12:13:01.788Z,4.18
2022-10-25T12:15:03.048Z,4.18
2022-10-25T12:17:04.852Z,4.18
2022-10-25T12:19:06.441Z,4.18
2022-10-25T12:21:08.158Z,4.18
2022-10-25T12:23:09.152Z,4.18
2022-10-25T12:25:10.457Z,4.17
2022-10-25T12:27:11.556Z,4.18
2022-10-25T12:29:12.507Z,4.18
2022-10-25T12:31:14.274Z,4.18
2022-10-25T12:33:15.323Z,4.18
2022-10-25T12:35:17.416Z,4.18
2022-10-25T12:37:18.557Z,4.18
2022-10-25T12:39:20.068Z,4.18
2022-10-25T12:41:21.727Z,4.18
2022-10-25T12:43:23.340Z,4.18
2022-10-25T12:47:26.793Z,4.17
2022-10-25T12:49:28.520Z,4.17
2022-10-25T12:53:30.958Z,4.17
2022-10-25T12:55:31.808Z,4.17
2022-10-25T12:57:32.810Z,4.17
2022-10-25T12:59:34.326Z,4.17
2022-10-25T13:01:36.411Z,4.17
2022-10-25T13:03:37.443Z,4.17
2022-10-25T13:05:38.817Z,4.17
2022-10-25T13:09:41.725Z,4.17
2022-10-25T13:11:43.524Z,4.17
2022-10-25T13:13:45.108Z,4.17
2022-10-25T13:15:46.584Z,4.17
2022-10-25T13:19:54.367Z,4.17
2022-10-25T13:21:51.179Z,4.17
2022-10-25T13:25:52.129Z,4.17
2022-10-25T13:27:53.988Z,4.17
2022-10-25T13:29:55.603Z,4.17
2022-10-25T13:31:56.900Z,4.16
2022-10-25T13:35:59.463Z,4.17
2022-10-25T13:38:01.226Z,4.17
2022-10-25T13:40:02.092Z,4.17
2022-10-25T13:42:03.814Z,4.17
2022-10-25T13:44:05.267Z,4.17
2022-10-25T13:48:07.634Z,4.17
2022-10-25T13:50:10.135Z,4.16
2022-10-25T13:52:11.867Z,4.16
2022-10-25T13:54:13.322Z,4.16
2022-10-25T13:56:14.181Z,4.16
2022-10-25T13:58:15.725Z,4.16
2022-10-25T14:02:18.257Z,4.16
2022-10-25T14:04:19.616Z,4.16
2022-10-25T14:06:21.078Z,4.16
2022-10-25T14:08:22.522Z,4.16
2022-10-25T14:10:23.616Z,4.16
2022-10-25T14:12:25.032Z,4.16
2022-10-25T14:14:26.327Z,4.16
2022-10-25T14:18:29.218Z,4.16
2022-10-25T14:20:30.845Z,4.16
2022-10-25T14:22:32.846Z,4.16
2022-10-25T14:24:34.074Z,4.16
2022-10-25T14:26:35.726Z,4.16
2022-10-25T14:28:37.225Z,4.16
2022-10-25T14:30:38.498Z,4.16
2022-10-25T14:34:41.820Z,4.16
2022-10-25T14:36:42.935Z,4.16
2022-10-25T14:38:44.470Z,4.16
2022-10-25T14:40:46.145Z,4.16
2022-10-25T14:44:48.796Z,4.15
2022-10-25T14:46:49.768Z,4.15
2022-10-25T14:50:52.257Z,4.16
2022-10-25T14:52:54.993Z,4.15
2022-10-25T14:54:54.495Z,4.16
2022-10-25T14:56:55.591Z,4.16
2022-10-25T15:00:58.010Z,4.15
2022-10-25T15:02:59.298Z,4.15
2022-10-25T15:05:00.713Z,4.15
2022-10-25T15:07:02.206Z,4.15
2022-10-25T15:09:17.797Z,4.16
2022-10-25T15:11:05.458Z,4.15
2022-10-25T15:13:05.617Z,4.15
2022-10-25T15:17:08.618Z,4.15
2022-10-25T15:19:09.719Z,4.15
2022-10-25T15:21:10.714Z,4.15
2022-10-25T15:23:11.929Z,4.15
2022-10-25T15:25:13.333Z,4.15
2022-10-25T15:27:15.096Z,4.15
2022-10-25T15:29:16.272Z,4.15
2022-10-25T15:31:19.469Z,4.15
2022-10-25T15:33:19.247Z,4.15
2022-10-25T15:35:20.247Z,4.15
2022-10-25T15:37:21.081Z,4.14
2022-10-25T15:39:22.239Z,4.15
2022-10-25T15:43:25.387Z,4.15
2022-10-25T15:45:26.799Z,4.14
2022-10-25T15:47:27.762Z,4.15
2022-10-25T15:49:29.100Z,4.14
2022-10-25T15:52:13.930Z,4.15
2022-10-25T15:54:15.229Z,4.14
2022-10-25T15:56:16.330Z,4.14
2022-10-25T15:58:17.732Z,4.14
2022-10-25T16:00:20.950Z,4.14
2022-10-25T16:02:20.967Z,4.14
2022-10-25T16:04:22.222Z,4.14
2022-10-25T16:06:24.075Z,4.14
2022-10-25T16:10:27.401Z,4.14
2022-10-25T16:12:28.324Z,4.14
2022-10-25T16:14:29.257Z,4.14
2022-10-25T16:16:39.699Z,4.14
2022-10-25T16:18:32.093Z,4.14
2022-10-25T16:20:33.411Z,4.14
2022-10-25T16:22:34.393Z,4.14
2022-10-25T16:26:37.962Z,4.14
2022-10-25T16:28:39.404Z,4.14
2022-10-25T16:30:41.774Z,4.14
2022-10-25T16:32:42.672Z,4.14
2022-10-25T16:36:45.810Z,4.13
2022-10-25T16:38:47.069Z,4.14
2022-10-25T16:40:48.620Z,4.14
2022-10-25T16:42:49.977Z,4.14
2022-10-25T16:44:51.324Z,4.14
2022-10-25T16:46:53.170Z,4.14
2022-10-25T16:48:55.835Z,4.14
2022-10-25T16:52:57.532Z,4.13
2022-10-25T16:54:58.991Z,4.13
2022-10-25T16:57:00.657Z,4.13
2022-10-25T16:59:01.815Z,4.13
2022-10-25T17:01:03.415Z,4.13
2022-10-25T17:03:04.575Z,4.13
2022-10-25T17:05:06.085Z,4.13
2022-10-25T17:09:08.491Z,4.13
2022-10-25T17:11:09.730Z,4.13
2022-10-25T17:13:11.533Z,4.13
2022-10-25T17:15:13.290Z,4.13
2022-10-25T17:19:16.818Z,4.13
2022-10-25T17:21:18.700Z,4.12
2022-10-25T17:23:19.641Z,4.13
2022-10-25T17:25:20.984Z,4.13
2022-10-25T17:27:21.935Z,4.13
2022-10-25T17:29:22.961Z,4.12
2022-10-25T17:31:24.011Z,4.13
2022-10-25T17:35:29.583Z,4.12
2022-10-25T17:37:27.541Z,4.12
2022-10-25T17:39:29.244Z,4.12
2022-10-25T17:41:31.036Z,4.12
2022-10-25T17:43:32.385Z,4.13
2022-10-25T17:45:33.994Z,4.12
2022-10-25T17:47:35.486Z,4.12
2022-10-25T17:51:38.519Z,4.12
2022-10-25T17:53:39.510Z,4.12
2022-10-25T17:55:41.325Z,4.12
2022-10-25T17:57:43.187Z,4.12
2022-10-25T18:01:45.659Z,4.12
2022-10-25T18:03:47.431Z,4.12
2022-10-25T18:07:50.342Z,4.12
2022-10-25T18:09:52.035Z,4.12
2022-10-25T18:11:53.817Z,4.12
2022-10-25T18:13:54.913Z,4.12
2022-10-25T18:17:57.980Z,4.12
2022-10-25T18:19:59.904Z,4.12
2022-10-25T18:22:01.060Z,4.12
2022-10-25T18:24:02.896Z,4.11
2022-10-25T18:26:04.265Z,4.12
2022-10-25T18:28:05.816Z,4.12
2022-10-25T18:30:07.541Z,4.12
2022-10-25T18:34:10.145Z,4.12
2022-10-25T18:36:11.706Z,4.12
2022-10-25T18:38:15.746Z,4.11
2022-10-25T18:40:15.467Z,4.11
2022-10-25T18:44:17.984Z,4.11
2022-10-25T18:46:18.942Z,4.11
2022-10-25T18:48:20.127Z,4.11
2022-10-25T18:50:21.283Z,4.11
2022-10-25T18:52:22.744Z,4.11
2022-10-25T18:54:24.592Z,4.11
2022-10-25T18:56:25.676Z,4.11
2022-10-25T18:58:26.777Z,4.11
2022-10-25T19:02:31.098Z,4.11
2022-10-25T19:06:32.496Z,4.11
2022-10-25T19:08:34.011Z,4.11
2022-10-25T19:10:35.024Z,4.11
2022-10-25T19:12:36.520Z,4.11
2022-10-25T19:16:39.398Z,4.11
2022-10-25T19:18:40.517Z,4.1
2022-10-25T19:20:42.900Z,4.11
2022-10-25T19:22:43.418Z,4.11
2022-10-25T19:26:46.837Z,4.11
2022-10-25T19:28:48.461Z,4.11
2022-10-25T19:32:51.955Z,4.1
2022-10-25T19:34:53.349Z,4.11
2022-10-25T19:36:55.136Z,4.1
2022-10-25T19:38:56.340Z,4.1
2022-10-25T19:42:59.281Z,4.1
2022-10-25T19:45:00.954Z,4.1
2022-10-25T19:47:02.344Z,4.1
2022-10-25T19:49:03.928Z,4.1
2022-10-25T19:51:05.235Z,4.1
2022-10-25T19:53:06.951Z,4.1
2022-10-25T19:55:07.974Z,4.1
2022-10-25T19:59:11.208Z,4.1
2022-10-25T20:01:12.887Z,4.1
2022-10-25T20:03:14.100Z,4.1
2022-10-25T20:05:15.757Z,4.1
2022-10-25T20:07:16.848Z,4.1
2022-10-25T20:09:17.992Z,4.1
2022-10-25T20:11:19.341Z,4.1
2022-10-25T20:15:22.157Z,4.1
2022-10-25T20:17:23.402Z,4.1
2022-10-25T20:19:24.486Z,4.1
2022-10-25T20:21:26.338Z,4.1
2022-10-25T20:25:29.449Z,4.1
2022-10-25T20:27:30.752Z,4.1
2022-10-25T20:31:33.151Z,4.1
2022-10-25T20:33:34.836Z,4.1
2022-10-25T20:35:35.832Z,4.09
2022-10-25T20:37:37.101Z,4.09
2022-10-25T20:41:40.507Z,4.09
2022-10-25T20:43:42.409Z,4.1
2022-10-25T20:45:43.780Z,4.09
2022-10-25T20:47:45.070Z,4.09
2022-10-25T20:49:46.106Z,4.09
2022-10-25T20:51:47.912Z,4.09
2022-10-25T20:53:49.462Z,4.09
2022-10-25T20:57:52.992Z,4.09
2022-10-25T20:59:54.346Z,4.09
2022-10-25T21:03:57.667Z,4.09
2022-10-25T21:08:00.443Z,4.09
2022-10-25T21:10:01.455Z,4.09
2022-10-25T21:14:04.259Z,4.09
2022-10-25T21:16:05.570Z,4.09
2022-10-25T21:18:06.750Z,4.09
2022-10-25T21:20:08.372Z,4.09
2022-10-25T21:22:10.284Z,4.08
2022-10-25T21:24:11.950Z,4.08
2022-10-25T21:28:14.976Z,4.09
2022-10-25T21:30:16.102Z,4.08
2022-10-25T21:32:17.169Z,4.08
2022-10-25T21:36:20.201Z,4.08
2022-10-25T21:40:23.267Z,4.08
2022-10-25T21:42:24.491Z,4.08
2022-10-25T21:46:26.820Z,4.08
2022-10-25T21:48:28.379Z,4.08
2022-10-25T21:50:29.421Z,4.08
2022-10-25T21:52:30.534Z,4.08
2022-10-25T21:56:33.330Z,4.08
2022-10-25T21:58:34.593Z,4.08
2022-10-25T22:02:37.236Z,4.08
2022-10-25T22:04:38.864Z,4.08
2022-10-25T22:06:39.893Z,4.08
2022-10-25T22:08:41.648Z,4.08
2022-10-25T22:12:44.334Z,4.08
2022-10-25T22:14:45.383Z,4.08
2022-10-25T22:16:47.292Z,4.08
2022-10-25T22:18:49.157Z,4.08
2022-10-25T22:22:52.033Z,4.08
2022-10-25T22:24:53.438Z,4.08
2022-10-25T22:26:55.109Z,4.08
2022-10-25T22:28:56.859Z,4.08
2022-10-25T22:30:58.661Z,4.08
2022-10-25T22:35:02.253Z,4.08
2022-10-25T22:37:47.807Z,4.08
2022-10-25T22:39:48.619Z,4.08
2022-10-25T22:41:50.552Z,4.07
2022-10-25T22:43:51.784Z,4.07
2022-10-25T22:45:53.462Z,4.08
2022-10-25T22:49:56.237Z,4.08
2022-10-25T22:51:58.016Z,4.08
2022-10-25T22:56:00.797Z,4.08
2022-10-25T23:00:03.799Z,4.07
2022-10-25T23:02:05.416Z,4.07
2022-10-25T23:04:06.908Z,4.07
2022-10-25T23:06:08.542Z,4.07
2022-10-25T23:08:09.878Z,4.07
2022-10-25T23:10:11.234Z,4.07
2022-10-25T23:12:12.676Z,4.07
2022-10-25T23:16:15.601Z,4.07
2022-10-25T23:18:16.879Z,4.07
2022-10-25T23:20:18.235Z,4.07
2022-10-25T23:22:19.790Z,4.07
2022-10-25T23:26:22.441Z,4.06
2022-10-25T23:28:24.309Z,4.07
2022-10-25T23:32:35.512Z,4.07
2022-10-25T23:34:29.004Z,4.07
2022-10-25T23:36:30.114Z,4.06
2022-10-25T23:38:31.323Z,4.06
2022-10-25T23:40:32.691Z,4.07
2022-10-25T23:42:34.465Z,4.07
2022-10-25T23:44:36.363Z,4.06
2022-10-25T23:48:39.180Z,4.06
2022-10-25T23:50:40.886Z,4.07
2022-10-25T23:52:42.308Z,4.06
2022-10-25T23:54:43.830Z,4.06
2022-10-25T23:56:45.588Z,4.06
2022-10-25T23:58:46.899Z,4.06
